createdAt,value
2023-01-30T00:02:52.496Z,1011.99
2023-01-30T00:05:52.499Z,1011.99
2023-01-30T00:08:52.496Z,1012
2023-01-30T00:11:52.496Z,1011.89
2023-01-30T00:14:52.496Z,1011.86
2023-01-30T00:17:52.503Z,1011.91
2023-01-30T00:20:52.489Z,1011.9
2023-01-30T00:23:52.499Z,1011.78
2023-01-30T00:26:52.506Z,1011.58
2023-01-30T00:30:02.367Z,1011.46
2023-01-30T00:32:52.511Z,1011.44
2023-01-30T00:35:52.512Z,1011.27
2023-01-30T00:38:52.505Z,1011.01
2023-01-30T00:41:52.508Z,1010.84
2023-01-30T00:44:52.521Z,1010.84
2023-01-30T00:47:52.515Z,1011.14
2023-01-30T00:50:52.514Z,1011.1
2023-01-30T00:53:52.510Z,1011.01
2023-01-30T00:56:52.517Z,1011.12
2023-01-30T00:59:52.511Z,1011.04
2023-01-30T01:02:52.544Z,1010.96
2023-01-30T01:05:52.531Z,1011.04
2023-01-30T01:08:52.518Z,1010.84
2023-01-30T01:11:52.513Z,1010.95
2023-01-30T01:14:52.528Z,1010.95
2023-01-30T01:17:52.513Z,1010.91
2023-01-30T01:20:52.523Z,1010.83
2023-01-30T01:23:52.548Z,1010.77
2023-01-30T01:26:52.519Z,1010.8
2023-01-30T01:29:52.523Z,1010.49
2023-01-30T01:32:52.511Z,1010.33
2023-01-30T01:35:52.522Z,1010.48
2023-01-30T01:38:52.512Z,1010.62
2023-01-30T01:41:52.522Z,1010.61
2023-01-30T01:44:52.518Z,1010.52
2023-01-30T01:47:52.525Z,1010.46
2023-01-30T01:50:52.516Z,1010.45
2023-01-30T01:53:52.516Z,1010.42
2023-01-30T01:56:52.522Z,1010.28
2023-01-30T01:59:52.509Z,1010.1
2023-01-30T02:02:52.522Z,1010.03
2023-01-30T02:05:52.518Z,1010.12
2023-01-30T02:08:52.521Z,1010.16
2023-01-30T02:11:52.523Z,1010.01
2023-01-30T02:14:52.518Z,1009.84
2023-01-30T02:17:52.587Z,1009.75
2023-01-30T02:20:52.522Z,1009.84
2023-01-30T02:23:52.524Z,1009.94
2023-01-30T02:26:52.527Z,1009.99
2023-01-30T02:29:52.522Z,1009.87
2023-01-30T02:32:52.525Z,1009.84
2023-01-30T02:35:52.514Z,1009.73
2023-01-30T02:38:52.523Z,1009.78
2023-01-30T02:41:52.521Z,1009.82
2023-01-30T02:44:52.550Z,1009.82
2023-01-30T02:47:52.519Z,1009.78
2023-01-30T02:50:52.541Z,1009.75
2023-01-30T02:53:52.525Z,1009.74
2023-01-30T02:56:52.628Z,1009.75
2023-01-30T02:59:52.530Z,1009.84
2023-01-30T03:02:52.640Z,1009.83
2023-01-30T03:05:52.528Z,1009.88
2023-01-30T03:08:52.526Z,1009.89
2023-01-30T03:11:52.527Z,1009.83
2023-01-30T03:14:52.528Z,1009.94
2023-01-30T03:17:52.532Z,1009.93
2023-01-30T03:20:52.525Z,1009.79
2023-01-30T03:23:52.525Z,1009.77
2023-01-30T03:26:52.527Z,1009.71
2023-01-30T03:29:52.521Z,1009.7
2023-01-30T03:32:52.526Z,1009.61
2023-01-30T03:35:52.523Z,1009.64
2023-01-30T03:38:52.548Z,1009.61
2023-01-30T03:41:52.540Z,1009.55
2023-01-30T03:44:52.544Z,1009.49
2023-01-30T03:47:52.546Z,1009.41
2023-01-30T03:50:52.549Z,1009.39
2023-01-30T03:53:52.561Z,1009.4
2023-01-30T03:56:52.552Z,1009.33
2023-01-30T03:59:52.540Z,1009.33
2023-01-30T04:02:52.543Z,1009.27
2023-01-30T04:05:52.551Z,1009.25
2023-01-30T04:08:52.547Z,1009.2
2023-01-30T04:11:52.542Z,1009.14
2023-01-30T04:14:52.543Z,1009.17
2023-01-30T04:17:52.557Z,1009.03
2023-01-30T04:20:52.547Z,1008.95
2023-01-30T04:23:52.544Z,1008.92
2023-01-30T04:26:52.557Z,1008.96
2023-01-30T04:29:52.540Z,1008.91
2023-01-30T04:32:52.545Z,1008.81
2023-01-30T04:35:52.555Z,1008.78
2023-01-30T04:38:52.553Z,1008.72
2023-01-30T04:41:52.552Z,1008.64
2023-01-30T04:44:52.561Z,1008.62
2023-01-30T04:47:52.615Z,1008.55
2023-01-30T04:50:52.547Z,1008.52
2023-01-30T04:53:52.550Z,1008.55
2023-01-30T04:56:52.557Z,1008.52
2023-01-30T04:59:52.549Z,1008.46
2023-01-30T05:02:52.546Z,1008.46
2023-01-30T05:05:52.544Z,1008.37
2023-01-30T05:08:52.567Z,1008.29
2023-01-30T05:11:52.551Z,1008.24
2023-01-30T05:14:52.550Z,1008.23
2023-01-30T05:17:52.544Z,1008.21
2023-01-30T05:20:52.553Z,1008.24
2023-01-30T05:23:52.556Z,1008.22
2023-01-30T05:26:52.541Z,1008.15
2023-01-30T05:29:52.557Z,1008.1
2023-01-30T05:32:52.554Z,1008.11
2023-01-30T05:35:52.545Z,1008.07
2023-01-30T05:38:52.586Z,1008.03
2023-01-30T05:41:52.562Z,1007.88
2023-01-30T05:44:52.553Z,1007.91
2023-01-30T05:47:53.564Z,1007.94
2023-01-30T05:50:52.555Z,1007.83
2023-01-30T05:53:52.547Z,1007.63
2023-01-30T05:56:52.553Z,1007.71
2023-01-30T05:59:52.553Z,1007.77
2023-01-30T06:02:52.579Z,1007.84
2023-01-30T06:05:52.561Z,1007.78
2023-01-30T06:08:52.563Z,1007.76
2023-01-30T06:11:53.307Z,1007.74
2023-01-30T06:14:52.829Z,1007.73
2023-01-30T06:17:52.842Z,1007.73
2023-01-30T06:20:52.838Z,1007.73
2023-01-30T06:23:52.761Z,1007.7
2023-01-30T06:26:52.824Z,1007.67
2023-01-30T06:29:52.738Z,1007.64
2023-01-30T06:32:52.735Z,1007.62
2023-01-30T06:35:52.760Z,1007.66
2023-01-30T06:38:52.739Z,1007.77
2023-01-30T06:41:52.762Z,1007.77
2023-01-30T06:44:52.753Z,1007.82
2023-01-30T06:47:52.752Z,1007.84
2023-01-30T06:50:52.748Z,1007.83
2023-01-30T06:53:53.395Z,1007.94
2023-01-30T06:56:52.736Z,1007.94
2023-01-30T06:59:52.748Z,1008.08
2023-01-30T07:02:52.758Z,1008.16
2023-01-30T07:05:52.770Z,1008.28
2023-01-30T07:08:52.746Z,1008.24
2023-01-30T07:11:53.692Z,1008.26
2023-01-30T07:14:53.529Z,1008.14
2023-01-30T07:17:53.535Z,1008.28
2023-01-30T07:20:53.554Z,1008.37
2023-01-30T07:23:53.506Z,1008.28
2023-01-30T07:26:53.499Z,1008.08
2023-01-30T07:29:53.512Z,1008.08
2023-01-30T07:32:53.550Z,1008.15
2023-01-30T07:35:53.500Z,1008.06
2023-01-30T07:38:53.529Z,1007.95
2023-01-30T07:41:55.368Z,1007.94
2023-01-30T07:44:53.505Z,1008.09
2023-01-30T07:47:53.522Z,1008.23
2023-01-30T07:50:53.513Z,1008.28
2023-01-30T07:53:53.496Z,1008.08
2023-01-30T07:56:53.528Z,1008.06
2023-01-30T07:59:53.514Z,1008.05
2023-01-30T08:02:53.503Z,1007.96
2023-01-30T08:05:53.514Z,1008.04
2023-01-30T08:08:53.510Z,1007.87
2023-01-30T08:11:53.513Z,1007.72
2023-01-30T08:14:53.512Z,1007.7
2023-01-30T08:17:53.505Z,1007.86
2023-01-30T08:20:53.553Z,1007.95
2023-01-30T08:23:53.541Z,1008
2023-01-30T08:26:53.546Z,1008.04
2023-01-30T08:29:53.563Z,1007.89
2023-01-30T08:32:53.551Z,1007.88
2023-01-30T08:35:53.565Z,1007.9
2023-01-30T08:38:53.540Z,1007.98
2023-01-30T08:41:53.542Z,1007.91
2023-01-30T08:44:53.544Z,1007.92
2023-01-30T08:47:53.541Z,1007.79
2023-01-30T08:50:53.552Z,1007.82
2023-01-30T08:53:53.548Z,1007.78
2023-01-30T08:56:53.555Z,1007.72
2023-01-30T08:59:53.543Z,1007.67
2023-01-30T09:02:53.553Z,1007.62
2023-01-30T09:05:53.578Z,1007.61
2023-01-30T09:08:53.546Z,1007.65
2023-01-30T09:11:53.544Z,1007.67
2023-01-30T09:14:53.539Z,1007.66
2023-01-30T09:17:53.579Z,1007.76
2023-01-30T09:20:53.857Z,1007.69
2023-01-30T09:23:53.548Z,1007.64
2023-01-30T09:26:53.549Z,1007.62
2023-01-30T09:29:53.553Z,1007.68
2023-01-30T09:32:53.543Z,1007.54
2023-01-30T09:35:53.557Z,1007.51
2023-01-30T09:38:53.641Z,1007.58
2023-01-30T09:41:53.546Z,1007.58
2023-01-30T09:44:53.545Z,1007.57
2023-01-30T09:47:53.572Z,1007.49
2023-01-30T09:50:53.575Z,1007.55
2023-01-30T09:53:53.568Z,1007.55
2023-01-30T09:56:53.570Z,1007.63
2023-01-30T09:59:53.592Z,1007.51
2023-01-30T10:02:53.577Z,1007.32
2023-01-30T10:05:53.747Z,1007.15
2023-01-30T10:08:53.567Z,1007.04
2023-01-30T10:11:53.583Z,1007.07
2023-01-30T10:14:53.653Z,1006.94
2023-01-30T10:17:53.637Z,1006.96
2023-01-30T10:20:53.599Z,1007.03
2023-01-30T10:23:53.575Z,1007.24
2023-01-30T10:26:53.574Z,1007.21
2023-01-30T10:29:53.840Z,1007.29
2023-01-30T10:32:53.597Z,1007.27
2023-01-30T10:35:53.579Z,1007.18
2023-01-30T10:38:53.605Z,1007.08
2023-01-30T10:41:53.572Z,1007.03
2023-01-30T10:44:53.598Z,1007.02
2023-01-30T10:47:53.566Z,1006.98
2023-01-30T10:50:53.578Z,1007.04
2023-01-30T10:53:53.580Z,1007.14
2023-01-30T10:56:53.568Z,1007.22
2023-01-30T10:59:53.584Z,1007.23
2023-01-30T11:02:53.627Z,1007.12
2023-01-30T11:05:53.570Z,1007.13
2023-01-30T11:08:53.590Z,1007.18
2023-01-30T11:11:53.578Z,1007.16
2023-01-30T11:14:53.597Z,1007.1
2023-01-30T11:17:54.481Z,1007.06
2023-01-30T11:20:53.601Z,1007.13
2023-01-30T11:23:53.589Z,1007.12
2023-01-30T11:26:53.702Z,1007.1
2023-01-30T11:29:53.596Z,1007.09
2023-01-30T11:32:53.594Z,1007.1
2023-01-30T11:35:53.594Z,1007.21
2023-01-30T11:38:53.604Z,1007.15
2023-01-30T11:41:53.596Z,1007.23
2023-01-30T11:44:55.441Z,1007.27
2023-01-30T11:47:57.407Z,1007.33
2023-01-30T11:50:53.608Z,1007.29
2023-01-30T11:53:53.605Z,1007.21
2023-01-30T11:56:53.600Z,1007.15
2023-01-30T11:59:53.609Z,1007.11
2023-01-30T12:02:53.626Z,1007.03
2023-01-30T12:05:53.608Z,1007.01
2023-01-30T12:08:53.697Z,1006.96
2023-01-30T12:11:53.629Z,1006.87
2023-01-30T12:14:53.654Z,1006.81
2023-01-30T12:17:53.659Z,1006.85
2023-01-30T12:20:53.630Z,1006.83
2023-01-30T12:23:53.631Z,1006.78
2023-01-30T12:26:53.640Z,1006.73
2023-01-30T12:29:53.634Z,1006.8
2023-01-30T12:32:53.634Z,1006.76
2023-01-30T12:35:53.628Z,1006.75
2023-01-30T12:38:53.798Z,1006.77
2023-01-30T12:41:53.654Z,1006.8
2023-01-30T12:44:53.657Z,1006.79
2023-01-30T12:47:53.650Z,1006.72
2023-01-30T12:50:53.658Z,1006.67
2023-01-30T12:53:53.657Z,1006.78
2023-01-30T12:56:53.683Z,1006.8
2023-01-30T12:59:53.660Z,1006.85
2023-01-30T13:02:53.709Z,1006.83
2023-01-30T13:05:53.662Z,1006.85
2023-01-30T13:08:53.658Z,1006.87
2023-01-30T13:11:53.682Z,1006.92
2023-01-30T13:14:53.663Z,1006.91
2023-01-30T13:17:53.652Z,1006.98
2023-01-30T13:20:53.668Z,1006.98
2023-01-30T13:23:53.657Z,1007.03
2023-01-30T13:26:53.743Z,1007.02
2023-01-30T13:29:53.657Z,1007.03
2023-01-30T13:32:53.660Z,1007.09
2023-01-30T13:35:53.653Z,1007.06
2023-01-30T13:38:53.670Z,1007.05
2023-01-30T13:41:53.667Z,1007.09
2023-01-30T13:44:53.669Z,1007.19
2023-01-30T13:47:53.680Z,1007.23
2023-01-30T13:50:53.670Z,1007.27
2023-01-30T13:53:53.664Z,1007.26
2023-01-30T13:56:53.669Z,1007.34
2023-01-30T13:59:53.664Z,1007.31
2023-01-30T14:02:53.669Z,1007.31
2023-01-30T14:05:53.683Z,1007.35
2023-01-30T14:08:53.662Z,1007.37
2023-01-30T14:11:53.669Z,1007.27
2023-01-30T14:14:53.676Z,1007.19
2023-01-30T14:17:53.686Z,1007.1
2023-01-30T14:20:53.688Z,1007.27
2023-01-30T14:23:53.663Z,1007.31
2023-01-30T14:26:53.715Z,1007.38
2023-01-30T14:29:53.672Z,1007.35
2023-01-30T14:32:53.673Z,1007.37
2023-01-30T14:35:53.690Z,1007.39
2023-01-30T14:38:53.687Z,1007.58
2023-01-30T14:41:53.687Z,1007.56
2023-01-30T14:44:53.687Z,1007.61
2023-01-30T14:47:53.745Z,1007.68
2023-01-30T14:50:53.677Z,1007.73
2023-01-30T14:53:53.690Z,1007.86
2023-01-30T14:56:53.691Z,1007.89
2023-01-30T15:00:11.394Z,1007.87
2023-01-30T15:02:53.714Z,1007.94
2023-01-30T15:05:53.686Z,1008.06
2023-01-30T15:08:53.689Z,1008.12
2023-01-30T15:11:53.696Z,1008.15
2023-01-30T15:14:54.119Z,1008.21
2023-01-30T15:18:06.034Z,1008.29
2023-01-30T15:20:53.700Z,1008.33
2023-01-30T15:23:53.701Z,1008.27
2023-01-30T15:26:53.754Z,1008.4
2023-01-30T15:29:53.704Z,1008.49
2023-01-30T15:32:53.707Z,1008.52
2023-01-30T15:35:53.695Z,1008.45
2023-01-30T15:38:53.714Z,1008.43
2023-01-30T15:41:53.702Z,1008.45
2023-01-30T15:44:53.693Z,1008.53
2023-01-30T15:47:53.713Z,1008.52
2023-01-30T15:50:53.731Z,1008.55
2023-01-30T15:53:53.696Z,1008.65
2023-01-30T15:56:53.706Z,1008.73
2023-01-30T15:59:53.699Z,1008.78
2023-01-30T16:02:53.716Z,1008.77
2023-01-30T16:05:53.735Z,1008.88
2023-01-30T16:08:53.705Z,1008.91
2023-01-30T16:11:53.713Z,1008.95
2023-01-30T16:14:53.761Z,1008.98
2023-01-30T16:17:53.741Z,1009.12
2023-01-30T16:21:01.406Z,1009.06
2023-01-30T16:23:53.736Z,1009.14
2023-01-30T16:26:53.798Z,1009.22
2023-01-30T16:29:53.728Z,1009.29
2023-01-30T16:32:53.753Z,1009.37
2023-01-30T16:35:53.733Z,1009.43
2023-01-30T16:38:53.739Z,1009.49
2023-01-30T16:41:53.734Z,1009.48
2023-01-30T16:44:53.727Z,1009.46
2023-01-30T16:47:53.734Z,1009.54
2023-01-30T16:50:53.727Z,1009.65
2023-01-30T16:53:53.730Z,1009.69
2023-01-30T16:56:53.749Z,1009.76
2023-01-30T16:59:53.737Z,1009.76
2023-01-30T17:02:53.727Z,1009.79
2023-01-30T17:05:53.752Z,1009.86
2023-01-30T17:08:53.730Z,1009.99
2023-01-30T17:11:53.746Z,1009.99
2023-01-30T17:14:53.731Z,1010.04
2023-01-30T17:17:53.761Z,1010.14
2023-01-30T17:20:53.729Z,1010.2
2023-01-30T17:23:53.733Z,1010.27
2023-01-30T17:26:53.845Z,1010.27
2023-01-30T17:29:53.747Z,1010.36
2023-01-30T17:32:53.741Z,1010.41
2023-01-30T17:35:53.735Z,1010.47
2023-01-30T17:38:53.735Z,1010.52
2023-01-30T17:41:53.734Z,1010.56
2023-01-30T17:44:53.741Z,1010.58
2023-01-30T17:47:53.744Z,1010.74
2023-01-30T17:50:53.763Z,1010.79
2023-01-30T17:53:53.740Z,1010.79
2023-01-30T17:56:53.745Z,1010.82
2023-01-30T17:59:53.746Z,1010.86
2023-01-30T18:02:53.820Z,1010.94
2023-01-30T18:05:53.736Z,1010.98
2023-01-30T18:08:53.733Z,1010.98
2023-01-30T18:11:53.755Z,1011.04
2023-01-30T18:14:53.751Z,1011.05
2023-01-30T18:17:53.749Z,1011.03
2023-01-30T18:20:53.750Z,1011.08
2023-01-30T18:23:53.877Z,1011.19
2023-01-30T18:26:53.877Z,1011.2
2023-01-30T18:29:53.881Z,1011.18
2023-01-30T18:32:54.161Z,1011.21
2023-01-30T18:35:53.870Z,1011.18
2023-01-30T18:38:53.875Z,1011.22
2023-01-30T18:41:53.869Z,1011.23
2023-01-30T18:44:53.878Z,1011.24
2023-01-30T18:47:53.871Z,1011.24
2023-01-30T18:50:53.869Z,1011.27
2023-01-30T18:53:53.874Z,1011.33
2023-01-30T18:56:53.874Z,1011.36
2023-01-30T18:59:53.870Z,1011.36
2023-01-30T19:02:53.961Z,1011.43
2023-01-30T19:05:53.882Z,1011.47
2023-01-30T19:08:53.871Z,1011.47
2023-01-30T19:11:53.874Z,1011.53
2023-01-30T19:14:53.878Z,1011.7
2023-01-30T19:17:53.894Z,1011.73
2023-01-30T19:20:53.879Z,1011.74
2023-01-30T19:23:53.921Z,1011.8
2023-01-30T19:26:53.906Z,1011.83
2023-01-30T19:29:53.877Z,1011.8
2023-01-30T19:32:53.882Z,1011.83
2023-01-30T19:35:53.876Z,1011.81
2023-01-30T19:38:53.890Z,1011.92
2023-01-30T19:41:53.870Z,1011.92
2023-01-30T19:44:53.880Z,1011.95
2023-01-30T19:47:53.871Z,1012.03
2023-01-30T19:50:53.869Z,1012.06
2023-01-30T19:53:53.888Z,1012.09
2023-01-30T19:56:53.876Z,1012.17
2023-01-30T19:59:53.879Z,1012.3
2023-01-30T20:02:53.899Z,1012.32
2023-01-30T20:05:53.881Z,1012.36
2023-01-30T20:08:53.886Z,1012.49
2023-01-30T20:11:53.870Z,1012.44
2023-01-30T20:14:53.877Z,1012.48
2023-01-30T20:17:53.891Z,1012.58
2023-01-30T20:20:53.885Z,1012.55
2023-01-30T20:23:53.890Z,1012.62
2023-01-30T20:26:53.963Z,1012.6
2023-01-30T20:29:53.884Z,1012.61
2023-01-30T20:32:53.893Z,1012.59
2023-01-30T20:35:53.898Z,1012.64
2023-01-30T20:38:53.895Z,1012.61
2023-01-30T20:41:53.944Z,1012.58
2023-01-30T20:44:53.887Z,1012.61
2023-01-30T20:47:53.888Z,1012.64
2023-01-30T20:50:53.896Z,1012.68
2023-01-30T20:53:53.904Z,1012.78
2023-01-30T20:56:53.988Z,1012.84
2023-01-30T20:59:53.894Z,1012.85
2023-01-30T21:02:53.907Z,1012.83
2023-01-30T21:05:53.902Z,1012.87
2023-01-30T21:08:53.929Z,1012.97
2023-01-30T21:11:53.901Z,1013.03
2023-01-30T21:14:53.912Z,1013.08
2023-01-30T21:17:53.900Z,1013.15
2023-01-30T21:20:53.905Z,1013.18
2023-01-30T21:23:53.905Z,1013.22
2023-01-30T21:26:53.929Z,1013.27
2023-01-30T21:29:53.917Z,1013.26
2023-01-30T21:32:53.903Z,1013.3
2023-01-30T21:35:53.905Z,1013.31
2023-01-30T21:38:53.903Z,1013.38
2023-01-30T21:41:53.904Z,1013.47
2023-01-30T21:44:53.914Z,1013.58
2023-01-30T21:47:53.912Z,1013.68
2023-01-30T21:50:53.906Z,1013.72
2023-01-30T21:53:53.912Z,1013.8
2023-01-30T21:56:53.909Z,1013.85
2023-01-30T21:59:53.919Z,1013.86
2023-01-30T22:02:53.925Z,1013.87
2023-01-30T22:05:54.468Z,1013.86
2023-01-30T22:08:54.213Z,1013.95
2023-01-30T22:11:53.924Z,1013.94
2023-01-30T22:14:53.916Z,1013.94
2023-01-30T22:17:54.334Z,1014.02
2023-01-30T22:20:54.030Z,1014.07
2023-01-30T22:23:53.933Z,1014.06
2023-01-30T22:26:54.533Z,1014.09
2023-01-30T22:29:54.080Z,1014.13
2023-01-30T22:32:53.922Z,1014.3
2023-01-30T22:35:54.691Z,1014.32
2023-01-30T22:38:54.251Z,1014.31
2023-01-30T22:41:53.938Z,1014.3
2023-01-30T22:44:54.555Z,1014.31
2023-01-30T22:47:54.330Z,1014.3
2023-01-30T22:50:53.932Z,1014.24
2023-01-30T22:53:53.942Z,1014.34
2023-01-30T22:56:53.928Z,1014.3
2023-01-30T22:59:53.927Z,1014.32
2023-01-30T23:02:53.944Z,1014.35
2023-01-30T23:05:53.934Z,1014.42
2023-01-30T23:08:53.938Z,1014.43
2023-01-30T23:11:53.932Z,1014.37
2023-01-30T23:14:53.932Z,1014.35
2023-01-30T23:17:53.934Z,1014.43
2023-01-30T23:20:53.935Z,1014.39
2023-01-30T23:23:53.937Z,1014.34
2023-01-30T23:26:53.927Z,1014.3
2023-01-30T23:29:53.944Z,1014.36
2023-01-30T23:32:53.928Z,1014.39
2023-01-30T23:35:53.936Z,1014.39
2023-01-30T23:38:53.935Z,1014.47
2023-01-30T23:41:53.979Z,1014.48
2023-01-30T23:44:53.943Z,1014.49
2023-01-30T23:47:53.940Z,1014.54
2023-01-30T23:50:53.939Z,1014.47
2023-01-30T23:53:53.940Z,1014.43
2023-01-30T23:56:53.940Z,1014.43
2023-01-30T23:59:53.944Z,1014.53
